Time;durP1;ratioP1;P1;durP2;ratioP2;P2;SDS_P1;SDS_P2;PMS_P1;PMS_P2;Temp;Humidity;BMP_temperature;BMP_pressure;BME280_temperature;BME280_humidity;BME280_pressure;Samples;Min_cycle;Max_cycle;Signal;HPM_P1;HPM_P2
2022/04/19 00:00:46;;;;;;;;;62.00;51.75;8.00;49.60;;;;;;5117036;28;8747;-57
2022/04/19 00:03:14;;;;;;;;;62.00;51.50;8.50;48.30;;;;;;5116511;28;8771;-59
2022/04/19 00:05:41;;;;;;;;;69.50;54.50;8.10;48.80;;;;;;5116767;28;8898;-59
2022/04/19 00:08:09;;;;;;;;;70.50;55.75;8.00;49.80;;;;;;5116685;28;8774;-58
2022/04/19 00:10:35;;;;;;;;;71.00;57.00;7.80;50.00;;;;;;5116981;28;8754;-57
2022/04/19 00:13:03;;;;;;;;;75.25;58.75;8.10;51.30;;;;;;5116701;28;8795;-58
2022/04/19 00:15:30;;;;;;;;;76.00;60.25;8.20;49.00;;;;;;5116860;28;8748;-58
2022/04/19 00:17:57;;;;;;;;;77.25;58.00;8.20;49.10;;;;;;5116845;28;8775;-57
2022/04/19 00:20:24;;;;;;;;;59.50;45.75;8.10;49.80;;;;;;5116800;28;8819;-59
2022/04/19 00:22:49;;;;;;;;;71.00;58.00;8.40;48.60;;;;;;5116412;28;8791;-57
2022/04/19 00:25:16;;;;;;;;;69.50;57.00;8.60;48.20;;;;;;5116355;28;8837;-58
2022/04/19 00:27:42;;;;;;;;;69.50;57.50;8.50;48.10;;;;;;5116379;28;8755;-56
2022/04/19 00:30:09;;;;;;;;;69.25;58.00;8.40;48.50;;;;;;5116342;28;8761;-59
2022/04/19 00:32:35;;;;;;;;;76.50;61.25;8.40;48.70;;;;;;5116312;28;8755;-56
2022/04/19 00:35:07;;;;;;;;;67.50;54.25;8.60;47.50;;;;;;5116306;28;8751;-56
2022/04/19 00:37:34;;;;;;;;;61.75;50.25;8.80;47.40;;;;;;5116529;28;9470;-58
2022/04/19 00:40:01;;;;;;;;;62.25;51.75;8.60;48.10;;;;;;5116404;28;8771;-58
2022/04/19 00:42:28;;;;;;;;;61.00;51.50;8.50;48.30;;;;;;5115950;28;8751;-59
2022/04/19 00:44:58;;;;;;;;;59.25;48.75;8.50;48.30;;;;;;5116293;28;8847;-58
2022/04/19 00:47:25;;;;;;;;;57.50;48.50;7.90;49.80;;;;;;5116289;28;8777;-56
2022/04/19 00:49:51;;;;;;;;;67.50;53.00;8.20;49.30;;;;;;5116211;28;8751;-58
2022/04/19 00:52:18;;;;;;;;;59.00;50.00;8.40;48.90;;;;;;5116148;28;8743;-56
2022/04/19 00:54:46;;;;;;;;;64.75;54.00;8.30;48.70;;;;;;5116108;28;9432;-57
2022/04/19 00:57:13;;;;;;;;;67.00;53.25;8.30;48.90;;;;;;5115782;28;8798;-56
2022/04/19 00:59:39;;;;;;;;;61.75;50.00;7.80;49.80;;;;;;5115756;28;8877;-58
2022/04/19 01:02:05;;;;;;;;;59.50;50.00;7.30;52.00;;;;;;5115955;28;8877;-60
2022/04/19 01:04:31;;;;;;;;;62.00;49.75;7.60;51.10;;;;;;5115595;28;9440;-57
2022/04/19 01:06:58;;;;;;;;;54.00;44.25;7.70;50.80;;;;;;5114701;28;8766;-58
2022/04/19 01:09:24;;;;;;;;;64.50;51.00;8.00;49.80;;;;;;5115572;28;8835;-60
2022/04/19 01:14:37;;;;;;;;;59.25;50.50;8.10;49.50;;;;;;5115901;28;8794;-57
2022/04/19 01:17:03;;;;;;;;;59.00;48.50;8.20;49.20;;;;;;5115398;28;8778;-57
2022/04/19 01:19:29;;;;;;;;;60.50;51.50;8.50;48.40;;;;;;5115690;28;8751;-60
2022/04/19 01:21:57;;;;;;;;;66.75;49.25;8.50;48.20;;;;;;5115343;28;8852;-56
2022/04/19 01:24:23;;;;;;;;;55.75;48.25;8.10;49.20;;;;;;5115389;28;8783;-58
2022/04/19 01:26:52;;;;;;;;;61.00;49.50;7.70;50.70;;;;;;5115313;28;8759;-57
2022/04/19 01:29:18;;;;;;;;;60.00;48.25;7.90;49.90;;;;;;5115588;28;9408;-58
2022/04/19 01:31:45;;;;;;;;;57.00;47.25;7.40;51.70;;;;;;5115227;28;8763;-58
2022/04/19 01:34:12;;;;;;;;;62.50;50.50;7.40;52.10;;;;;;5115533;28;8763;-58
2022/04/19 01:36:38;;;;;;;;;64.50;53.50;7.20;52.50;;;;;;5115074;28;8863;-57
2022/04/19 01:39:06;;;;;;;;;59.50;49.25;7.20;52.70;;;;;;5115408;28;8763;-57
2022/04/19 01:41:32;;;;;;;;;65.00;53.50;7.20;53.00;;;;;;5115351;28;8755;-58
2022/04/19 01:43:59;;;;;;;;;62.75;52.75;7.00;53.30;;;;;;5115361;28;8779;-58
2022/04/19 01:46:26;;;;;;;;;64.25;54.00;7.00;53.70;;;;;;5115208;28;8759;-58
2022/04/19 01:48:55;;;;;;;;;64.75;52.75;6.90;54.10;;;;;;5115269;28;9421;-56
2022/04/19 01:51:22;;;;;;;;;58.25;49.75;7.10;54.00;;;;;;5114983;28;8781;-59
2022/04/19 01:53:49;;;;;;;;;66.50;54.25;6.80;54.30;;;;;;5115196;28;8743;-57
2022/04/19 01:56:14;;;;;;;;;64.25;52.00;6.30;56.30;;;;;;5114924;28;8759;-59
2022/04/19 01:58:40;;;;;;;;;61.25;51.25;6.40;57.20;;;;;;5115090;28;8767;-60
2022/04/19 02:01:06;;;;;;;;;61.50;48.75;6.40;56.50;;;;;;5114886;28;8894;-57
2022/04/19 02:03:34;;;;;;;;;61.25;50.50;6.60;56.00;;;;;;5113767;28;8802;-59
2022/04/19 02:06:20;;;;;;;;;63.50;52.25;6.60;55.00;;;;;;5115048;28;8791;-57
2022/04/19 02:08:46;;;;;;;;;65.75;51.50;6.30;56.30;;;;;;5114677;28;8870;-55
2022/04/19 02:11:11;;;;;;;;;65.50;53.00;6.40;56.80;;;;;;5114990;28;8944;-58
2022/04/19 02:13:37;;;;;;;;;66.50;53.25;7.10;54.40;;;;;;5114770;28;8799;-57
2022/04/19 02:16:03;;;;;;;;;62.50;51.00;7.30;53.40;;;;;;5114256;28;8767;-57
2022/04/19 02:18:29;;;;;;;;;59.25;49.25;7.60;52.10;;;;;;5114668;28;9440;-57
2022/04/19 02:20:58;;;;;;;;;65.25;53.00;7.60;52.30;;;;;;5114720;28;8794;-58
2022/04/19 02:23:25;;;;;;;;;64.75;52.00;7.70;51.50;;;;;;5114458;28;8802;-57
2022/04/19 02:25:52;;;;;;;;;64.25;52.50;7.70;51.60;;;;;;5117266;28;8913;-58
2022/04/19 02:28:18;;;;;;;;;64.00;54.25;7.70;51.30;;;;;;5118994;28;8751;-58
2022/04/19 02:30:59;;;;;;;;;60.50;49.00;7.90;51.00;;;;;;5118981;28;8762;-57
2022/04/19 02:33:28;;;;;;;;;59.25;49.50;7.70;51.20;;;;;;5115314;28;8782;-58
2022/04/19 02:35:54;;;;;;;;;58.25;48.00;7.90;50.80;;;;;;5118856;28;8873;-57
2022/04/19 02:38:20;;;;;;;;;60.00;50.25;7.90;50.40;;;;;;5118764;28;8874;-59
2022/04/19 02:40:46;;;;;;;;;57.75;49.50;7.30;52.70;;;;;;5118545;28;9316;-58
2022/04/19 02:43:13;;;;;;;;;56.75;47.00;7.50;52.30;;;;;;5118545;28;8885;-56
2022/04/19 02:45:39;;;;;;;;;44.50;39.50;7.50;52.10;;;;;;5118392;28;8809;-59
2022/04/19 02:48:08;;;;;;;;;53.50;45.50;7.50;52.10;;;;;;5118359;28;8870;-58
2022/04/19 02:50:41;;;;;;;;;56.75;45.25;7.50;52.00;;;;;;5118583;28;8759;-58
2022/04/19 02:53:06;;;;;;;;;57.25;47.50;7.60;51.80;;;;;;5118264;28;8805;-58
2022/04/19 02:55:32;;;;;;;;;48.75;42.00;7.60;51.80;;;;;;5118596;28;8799;-58
2022/04/19 02:57:58;;;;;;;;;51.75;44.00;7.40;52.40;;;;;;5118099;28;8759;-55
2022/04/19 03:00:24;;;;;;;;;49.25;43.00;7.70;51.90;;;;;;5118333;28;8770;-59
2022/04/19 03:02:50;;;;;;;;;49.00;43.00;7.60;51.70;;;;;;5118315;28;8751;-59
2022/04/19 03:05:17;;;;;;;;;51.75;42.75;7.50;52.80;;;;;;5118235;28;8806;-57
2022/04/19 03:07:43;;;;;;;;;47.25;43.75;7.00;53.20;;;;;;5118003;28;8770;-60
2022/04/19 03:10:09;;;;;;;;;53.00;44.25;7.00;53.60;;;;;;5118108;28;8748;-58
2022/04/19 03:12:35;;;;;;;;;60.75;48.25;7.10;53.30;;;;;;5117832;28;9462;-57
2022/04/19 03:15:00;;;;;;;;;56.50;46.75;6.50;55.20;;;;;;5118113;28;8839;-58
2022/04/19 03:17:26;;;;;;;;;58.25;48.25;6.40;56.70;;;;;;5117939;28;8787;-59
2022/04/19 03:19:52;;;;;;;;;58.50;48.75;6.40;55.70;;;;;;5117779;28;8906;-59
2022/04/19 03:22:18;;;;;;;;;55.75;46.75;6.90;54.70;;;;;;5117658;28;8783;-58
2022/04/19 03:27:43;;;;;;;;;51.50;44.25;6.60;55.10;;;;;;5117679;28;9361;-58
2022/04/19 03:30:14;;;;;;;;;55.50;45.00;6.40;56.50;;;;;;5117921;28;8783;-57
2022/04/19 03:32:43;;;;;;;;;52.00;41.25;6.40;56.40;;;;;;5117869;28;8751;-58
2022/04/19 03:35:10;;;;;;;;;59.00;48.25;6.70;55.50;;;;;;5117438;28;8789;-59
2022/04/19 03:37:38;;;;;;;;;58.25;49.75;6.40;55.40;;;;;;5116101;28;8823;-59
2022/04/19 03:40:05;;;;;;;;;57.75;46.50;6.40;56.90;;;;;;5113183;27;8766;-58
2022/04/19 03:42:31;;;;;;;;;60.75;48.75;6.20;57.70;;;;;;5097693;28;8784;-60
2022/04/19 03:44:57;;;;;;;;;60.50;50.00;6.50;56.00;;;;;;5097083;28;8926;-56
2022/04/19 03:47:22;;;;;;;;;62.00;53.00;6.40;56.30;;;;;;5096786;28;8767;-58
2022/04/19 03:49:48;;;;;;;;;69.50;56.50;7.10;54.60;;;;;;5096984;28;8776;-58
2022/04/19 03:52:14;;;;;;;;;72.75;59.75;6.80;54.40;;;;;;5096730;28;8891;-60
2022/04/19 03:54:40;;;;;;;;;76.50;60.75;6.90;54.60;;;;;;5096919;28;8796;-57
2022/04/19 03:57:08;;;;;;;;;61.50;50.00;6.40;56.10;;;;;;5096867;28;8837;-56
2022/04/19 03:59:38;;;;;;;;;64.25;52.25;6.50;55.50;;;;;;5096589;28;8764;-56
2022/04/19 04:02:04;;;;;;;;;67.75;55.50;6.60;55.10;;;;;;5096554;28;8768;-59
2022/04/19 04:04:31;;;;;;;;;66.75;53.00;6.90;54.20;;;;;;5096516;28;8820;-60
2022/04/19 04:07:00;;;;;;;;;81.00;64.25;6.70;54.20;;;;;;5096669;28;8776;-58
2022/04/19 04:09:32;;;;;;;;;82.25;66.25;6.60;54.80;;;;;;5096393;28;8771;-58
2022/04/19 04:12:01;;;;;;;;;78.50;63.75;6.40;56.10;;;;;;5096306;28;8814;-58
2022/04/19 04:14:27;;;;;;;;;62.75;53.50;6.30;56.50;;;;;;5116034;28;8806;-57
2022/04/19 04:16:53;;;;;;;;;76.00;60.75;6.30;56.00;;;;;;5116578;28;8762;-57
2022/04/19 04:19:19;;;;;;;;;76.00;61.75;6.50;55.60;;;;;;5116779;28;8770;-57
2022/04/19 04:21:44;;;;;;;;;78.00;63.25;6.80;54.40;;;;;;5116344;28;9554;-59
2022/04/19 04:24:10;;;;;;;;;75.50;57.25;6.80;54.20;;;;;;5116515;28;8825;-57
2022/04/19 04:26:36;;;;;;;;;73.75;58.00;6.90;53.70;;;;;;5116750;28;8864;-57
2022/04/19 04:29:01;;;;;;;;;83.50;65.25;7.10;52.90;;;;;;5116316;28;8761;-54
2022/04/19 04:31:27;;;;;;;;;78.00;60.25;7.10;52.50;;;;;;5116559;28;8784;-57
2022/04/19 04:33:53;;;;;;;;;82.25;67.75;7.20;52.00;;;;;;5116311;28;8880;-58
2022/04/19 04:36:19;;;;;;;;;83.25;65.00;7.10;52.70;;;;;;5116475;28;8889;-57
2022/04/19 04:38:46;;;;;;;;;79.50;62.25;7.10;53.00;;;;;;5114429;27;8766;-55
2022/04/19 04:41:11;;;;;;;;;80.50;66.00;7.20;52.80;;;;;;5105050;28;9393;-58
2022/04/19 04:43:39;;;;;;;;;82.75;64.25;7.40;52.70;;;;;;5095685;28;8825;-58
2022/04/19 04:51:34;;;;;;;;;79.00;63.00;7.50;52.10;;;;;;5121177;27;8756;-60
2022/04/19 04:54:00;;;;;;;;;77.75;61.00;7.70;51.40;;;;;;5118297;27;8803;-56
2022/04/19 04:56:25;;;;;;;;;69.50;55.50;7.60;52.00;;;;;;5136554;27;8932;-57
2022/04/19 04:58:51;;;;;;;;;71.50;57.50;7.10;53.30;;;;;;5136335;27;9412;-56
2022/04/19 05:01:17;;;;;;;;;80.00;64.00;7.10;53.30;;;;;;5136258;27;8787;-57
2022/04/19 05:03:42;;;;;;;;;72.75;58.00;7.50;52.50;;;;;;5136402;27;8768;-61
2022/04/19 05:06:08;;;;;;;;;69.25;56.25;8.00;51.30;;;;;;5136183;27;8899;-56
2022/04/19 05:08:34;;;;;;;;;64.75;52.25;7.90;51.20;;;;;;5136104;27;8778;-54
2022/04/19 05:11:00;;;;;;;;;66.00;54.75;7.60;52.30;;;;;;5136343;27;8771;-55
2022/04/19 05:13:25;;;;;;;;;71.50;58.00;7.90;51.30;;;;;;5135842;27;8783;-56
2022/04/19 05:15:51;;;;;;;;;70.75;58.25;7.60;51.70;;;;;;5136219;27;8773;-54
2022/04/19 05:18:17;;;;;;;;;70.75;57.00;7.60;52.30;;;;;;5122714;27;8800;-54
2022/04/19 05:20:43;;;;;;;;;72.25;57.75;8.10;50.80;;;;;;5106729;28;8843;-56
2022/04/19 05:23:09;;;;;;;;;74.00;60.75;8.40;50.30;;;;;;5114903;28;8878;-56
2022/04/19 05:25:35;;;;;;;;;81.75;65.00;8.60;49.60;;;;;;5114044;28;8825;-54
2022/04/19 05:28:01;;;;;;;;;82.25;69.00;8.70;49.30;;;;;;5097263;28;8869;-55
2022/04/19 05:30:26;;;;;;;;;80.75;63.25;8.70;49.30;;;;;;5115522;28;8888;-56
2022/04/19 05:32:52;;;;;;;;;83.00;64.75;8.60;49.80;;;;;;5115095;28;8773;-56
2022/04/19 05:35:18;;;;;;;;;78.75;63.50;9.20;48.70;;;;;;5115427;28;8833;-57
2022/04/19 05:37:45;;;;;;;;;79.25;64.50;9.30;48.20;;;;;;5115289;28;9450;-53
2022/04/19 05:40:11;;;;;;;;;70.00;56.75;9.40;48.60;;;;;;5115107;28;8757;-56
2022/04/19 05:42:37;;;;;;;;;73.50;60.00;9.80;47.10;;;;;;5115374;28;8786;-57
2022/04/19 05:45:03;;;;;;;;;77.25;60.00;10.10;46.60;;;;;;5114957;28;8798;-57
2022/04/19 05:47:29;;;;;;;;;76.00;61.75;10.20;46.20;;;;;;5114936;28;8773;-55
2022/04/19 05:49:54;;;;;;;;;75.00;60.50;10.00;46.40;;;;;;5114981;28;8762;-57
2022/04/19 05:52:20;;;;;;;;;80.75;64.50;9.90;47.30;;;;;;5115055;28;8766;-56
2022/04/19 05:54:46;;;;;;;;;81.75;65.75;10.10;47.20;;;;;;5115171;28;8794;-55
2022/04/19 05:57:11;;;;;;;;;71.50;56.50;10.10;47.00;;;;;;5108041;28;8768;-56
2022/04/19 05:59:37;;;;;;;;;69.25;55.00;10.00;47.60;;;;;;5107423;28;8778;-55
2022/04/19 06:04:54;;;;;;;;;64.50;53.00;10.00;47.40;;;;;;5109708;27;9357;-57
2022/04/19 06:07:20;;;;;;;;;69.00;54.75;10.10;46.70;;;;;;5135540;27;8836;-57
2022/04/19 06:09:46;;;;;;;;;65.25;53.50;10.40;46.00;;;;;;5121798;28;8804;-58
2022/04/19 06:12:12;;;;;;;;;60.75;50.00;10.20;46.50;;;;;;5103437;28;8918;-58
2022/04/19 06:14:39;;;;;;;;;60.75;49.75;9.80;47.20;;;;;;5104446;28;8792;-57
2022/04/19 06:17:05;;;;;;;;;67.00;54.75;9.30;48.60;;;;;;5094531;28;8882;-57
2022/04/19 06:19:31;;;;;;;;;68.25;54.25;9.40;49.80;;;;;;5104638;28;8775;-55
2022/04/19 06:21:59;;;;;;;;;65.00;53.00;9.80;49.00;;;;;;5102736;28;8819;-53
2022/04/19 06:24:25;;;;;;;;;62.75;51.25;9.60;48.60;;;;;;5105475;28;8805;-60
2022/04/19 06:26:51;;;;;;;;;62.00;51.25;9.90;48.70;;;;;;5094103;28;8808;-55
2022/04/19 06:29:17;;;;;;;;;58.75;47.00;10.20;48.00;;;;;;5118002;27;8791;-58
2022/04/19 06:31:46;;;;;;;;;58.25;48.25;10.30;47.40;;;;;;5120852;28;8807;-57
2022/04/19 06:34:12;;;;;;;;;57.00;47.25;10.70;46.60;;;;;;5101926;28;8808;-57
2022/04/19 06:36:38;;;;;;;;;55.50;43.75;10.20;46.80;;;;;;5098364;28;8775;-58
2022/04/19 06:39:04;;;;;;;;;56.50;45.25;10.30;47.00;;;;;;5095680;28;8798;-57
2022/04/19 06:41:30;;;;;;;;;51.50;44.00;10.50;46.30;;;;;;5114442;28;8799;-60
2022/04/19 06:43:57;;;;;;;;;47.50;41.00;10.50;46.10;;;;;;5114083;28;8823;-61
2022/04/19 06:46:27;;;;;;;;;49.25;41.00;10.50;45.60;;;;;;5114374;28;8805;-59
2022/04/19 06:48:59;;;;;;;;;48.50;40.50;10.40;46.30;;;;;;5114133;28;8777;-56
2022/04/19 06:51:30;;;;;;;;;44.50;40.00;10.10;46.80;;;;;;5114527;28;8776;-56
2022/04/19 06:53:56;;;;;;;;;41.00;35.50;10.50;46.50;;;;;;5114348;28;8899;-58
2022/04/19 06:56:22;;;;;;;;;42.75;38.25;10.60;44.80;;;;;;5114403;28;8800;-58
2022/04/19 06:58:49;;;;;;;;;38.00;36.00;10.90;45.00;;;;;;5114062;28;8750;-58
2022/04/19 07:01:15;;;;;;;;;40.00;36.25;11.30;44.70;;;;;;5114301;28;8842;-57
2022/04/19 07:03:41;;;;;;;;;36.50;33.50;10.90;45.60;;;;;;5113909;28;8797;-59
2022/04/19 07:06:07;;;;;;;;;47.00;40.00;11.00;43.90;;;;;;5114217;28;8802;-56
2022/04/19 07:08:33;;;;;;;;;41.25;37.00;11.40;43.00;;;;;;5114436;28;8766;-57
2022/04/19 07:11:00;;;;;;;;;37.25;32.00;11.80;42.00;;;;;;5115546;28;8745;-56
2022/04/19 07:13:27;;;;;;;;;42.00;39.25;12.00;42.20;;;;;;5117826;28;8749;-56
2022/04/19 07:15:53;;;;;;;;;33.50;33.00;11.60;42.50;;;;;;5118127;28;8757;-56
2022/04/19 07:18:23;;;;;;;;;41.25;37.00;10.80;43.80;;;;;;5117841;28;8777;-58
2022/04/19 07:29:02;;;;;;;;;29.25;29.00;11.70;41.80;;;;;;5117711;28;8734;-56
2022/04/19 07:31:28;;;;;;;;;40.00;35.50;12.10;41.00;;;;;;5117584;28;8776;-55
2022/04/19 07:33:54;;;;;;;;;28.25;26.25;12.30;40.60;;;;;;5117622;28;8950;-57
2022/04/19 07:36:20;;;;;;;;;26.25;26.00;12.00;39.40;;;;;;5117500;28;8876;-55
2022/04/19 07:38:46;;;;;;;;;25.00;24.50;12.40;38.50;;;;;;5117337;28;8754;-55
2022/04/19 07:41:12;;;;;;;;;27.50;27.00;12.50;38.80;;;;;;5117348;28;8753;-56
2022/04/19 07:43:38;;;;;;;;;30.50;29.75;12.70;38.50;;;;;;5117577;28;8778;-56
2022/04/19 07:46:10;;;;;;;;;23.00;22.75;12.50;38.70;;;;;;5117189;28;8790;-55
2022/04/19 07:48:36;;;;;;;;;24.50;23.50;12.40;38.20;;;;;;5117242;28;8753;-55
2022/04/19 07:51:02;;;;;;;;;20.00;17.25;12.50;37.90;;;;;;5117448;28;9523;-56
2022/04/19 07:53:28;;;;;;;;;22.25;21.00;12.30;37.70;;;;;;5116988;28;8762;-56
2022/04/19 07:55:57;;;;;;;;;20.00;17.50;12.60;37.50;;;;;;5117318;28;8761;-58
2022/04/19 07:58:24;;;;;;;;;20.75;20.75;11.90;37.90;;;;;;5117078;28;8753;-56
2022/04/19 08:00:50;;;;;;;;;21.25;21.25;11.40;40.00;;;;;;5116892;28;8776;-56
2022/04/19 08:03:15;;;;;;;;;20.50;20.50;11.60;39.80;;;;;;5117189;28;8869;-55
2022/04/19 08:05:41;;;;;;;;;18.50;17.50;12.10;38.20;;;;;;5117075;28;8839;-56
2022/04/19 08:08:07;;;;;;;;;23.75;21.00;12.20;38.10;;;;;;5116804;28;8773;-56
2022/04/19 08:10:33;;;;;;;;;13.50;13.50;12.10;37.90;;;;;;5116752;28;8877;-56
2022/04/19 08:13:00;;;;;;;;;20.75;18.00;12.40;37.40;;;;;;5116980;28;8864;-56
2022/04/19 08:15:26;;;;;;;;;17.00;17.00;12.80;35.70;;;;;;5116932;28;8783;-57
2022/04/19 08:17:52;;;;;;;;;14.00;14.00;12.80;34.80;;;;;;5116585;28;8866;-57
2022/04/19 08:20:18;;;;;;;;;17.00;17.00;12.40;35.40;;;;;;5116768;28;8753;-57
2022/04/19 08:22:47;;;;;;;;;16.25;16.25;12.90;35.10;;;;;;5115588;28;8801;-57
2022/04/19 08:25:14;;;;;;;;;20.00;19.75;13.20;34.50;;;;;;5116606;28;8837;-56
2022/04/19 08:27:42;;;;;;;;;20.00;18.75;13.40;33.70;;;;;;5116662;28;8757;-57
2022/04/19 08:30:09;;;;;;;;;12.75;12.75;13.60;32.90;;;;;;5116304;28;8750;-56
2022/04/19 08:32:35;;;;;;;;;12.00;11.00;13.50;33.00;;;;;;5116256;28;8749;-56
2022/04/19 08:35:01;;;;;;;;;13.33;13.33;13.00;31.70;;;;;;5116545;28;8778;-56
2022/04/19 08:37:36;;;;;;;;;13.00;12.00;12.50;32.30;;;;;;5116299;28;8777;-57
2022/04/19 08:40:09;;;;;;;;;16.00;15.00;12.70;32.90;;;;;;5116494;28;9411;-57
2022/04/19 08:42:37;;;;;;;;;16.00;16.00;12.90;33.90;;;;;;5116291;28;8764;-56
2022/04/19 08:45:04;;;;;;;;;11.67;10.67;12.60;34.10;;;;;;5115934;28;8801;-55
2022/04/19 08:47:32;;;;;;;;;13.67;12.67;12.20;33.00;;;;;;5115975;28;8765;-55
2022/04/19 08:50:04;;;;;;;;;13.00;13.00;12.70;31.10;;;;;;5115949;28;8770;-57
2022/04/19 08:52:34;;;;;;;;;14.00;13.67;12.40;32.80;;;;;;5115950;28;8761;-55
2022/04/19 08:57:45;;;;;;;;;16.00;14.67;13.00;32.00;;;;;;5116001;28;8840;-57
2022/04/19 09:00:12;;;;;;;;;16.00;15.33;13.20;33.10;;;;;;5115973;28;9524;-58
2022/04/19 09:02:38;;;;;;;;;18.33;17.67;13.50;31.40;;;;;;5115765;28;8777;-56
2022/04/19 09:05:26;;;;;;;;;9.00;9.00;13.50;31.30;;;;;;5115597;28;8928;-57
2022/04/19 09:07:53;;;;;;;;;14.33;14.33;13.50;30.60;;;;;;5115797;28;8762;-57
2022/04/19 09:10:33;;;;;;;;;15.00;13.00;13.00;30.30;;;;;;5115575;28;8758;-56
2022/04/19 09:13:06;;;;;;;;;16.33;15.67;12.80;31.00;;;;;;5115894;28;8760;-56
2022/04/19 09:15:32;;;;;;;;;9.33;9.33;13.00;30.70;;;;;;5115332;28;8792;-56
2022/04/19 09:17:59;;;;;;;;;13.00;12.00;13.50;30.30;;;;;;5115451;28;8781;-57
2022/04/19 09:20:25;;;;;;;;;10.67;10.67;13.80;29.90;;;;;;5115230;28;8753;-57
2022/04/19 09:23:10;;;;;;;;;13.33;12.00;13.80;28.80;;;;;;5115268;28;8904;-56
2022/04/19 09:25:37;;;;;;;;;15.33;13.33;13.90;30.40;;;;;;5115628;28;8847;-57
2022/04/19 09:28:16;;;;;;;;;13.33;13.33;14.20;29.50;;;;;;5115617;28;8770;-55
2022/04/19 09:30:42;;;;;;;;;14.00;13.00;14.10;30.20;;;;;;5115366;28;8750;-58
2022/04/19 09:33:10;;;;;;;;;15.67;14.67;14.40;29.80;;;;;;5115299;28;8838;-57
2022/04/19 09:35:47;;;;;;;;;16.00;16.00;14.60;30.40;;;;;;5115066;28;8777;-56
2022/04/19 09:38:13;;;;;;;;;15.00;15.00;14.90;30.70;;;;;;5115272;28;8762;-57
2022/04/19 09:40:42;;;;;;;;;8.33;8.33;14.60;29.60;;;;;;5115357;28;8766;-56
2022/04/19 09:43:10;;;;;;;;;13.00;13.00;13.80;30.00;;;;;;5115347;28;8774;-57
2022/04/19 09:45:58;;;;;;;;;12.00;10.33;13.90;29.20;;;;;;5114991;28;8801;-57
2022/04/19 09:48:28;;;;;;;;;12.00;11.00;13.70;29.30;;;;;;5115361;28;8860;-56
2022/04/19 09:50:57;;;;;;;;;13.00;12.67;13.40;29.50;;;;;;5115055;28;9556;-56
2022/04/19 09:53:26;;;;;;;;;13.33;10.33;14.00;29.90;;;;;;5114985;28;8780;-57
2022/04/19 09:55:54;;;;;;;;;10.00;10.00;14.00;30.50;;;;;;5115307;28;8820;-57
2022/04/19 09:58:21;;;;;;;;;13.00;10.00;14.30;31.70;;;;;;5115156;28;8785;-56
2022/04/19 10:00:48;;;;;;;;;11.67;11.33;15.00;31.30;;;;;;5114733;28;8784;-58
2022/04/19 10:08:46;;;;;;;;;15.67;15.67;14.90;28.00;;;;;;5114809;28;8742;-57
2022/04/19 10:11:13;;;;;;;;;13.00;13.00;15.10;28.00;;;;;;5115027;28;8765;-60
2022/04/19 10:13:40;;;;;;;;;12.00;12.00;15.70;27.00;;;;;;5114543;28;8766;-58
2022/04/19 10:16:14;;;;;;;;;11.00;11.00;15.60;27.30;;;;;;5114904;28;8846;-58
2022/04/19 10:18:41;;;;;;;;;11.33;10.33;16.00;27.30;;;;;;5114572;28;8757;-57
2022/04/19 10:21:13;;;;;;;;;11.00;11.00;16.00;26.60;;;;;;5114364;28;8765;-57
2022/04/19 10:23:41;;;;;;;;;11.00;11.00;15.90;28.00;;;;;;5114686;28;8944;-58
2022/04/19 10:26:16;;;;;;;;;10.67;10.67;16.00;28.30;;;;;;5114466;28;8889;-56
2022/04/19 10:28:42;;;;;;;;;8.00;8.00;16.10;27.20;;;;;;5114554;28;8737;-58
2022/04/19 10:31:09;;;;;;;;;9.67;9.00;16.00;27.00;;;;;;5114362;28;8765;-57
2022/04/19 10:33:51;;;;;;;;;12.33;12.33;16.10;25.70;;;;;;5114355;28;8777;-56
2022/04/19 10:36:23;;;;;;;;;12.00;12.00;16.20;27.00;;;;;;5114539;28;9114;-56
2022/04/19 10:39:11;;;;;;;;;10.33;10.33;16.60;26.50;;;;;;5114829;28;8884;-58
2022/04/19 10:41:53;;;;;;;;;11.00;11.00;16.20;26.90;;;;;;5114307;28;8862;-58
2022/04/19 10:44:24;;;;;;;;;9.00;8.67;16.00;27.60;;;;;;5114680;28;8750;-57
2022/04/19 10:47:07;;;;;;;;;7.67;7.67;16.10;27.40;;;;;;5117146;28;8757;-59
2022/04/19 10:49:55;;;;;;;;;8.33;8.33;16.60;28.00;;;;;;5118430;28;8758;-61
2022/04/19 10:52:45;;;;;;;;;12.33;12.00;16.60;26.10;;;;;;5111233;28;8803;-65
2022/04/19 10:55:25;;;;;;;;;9.00;9.00;16.00;27.10;;;;;;5107211;28;8799;-64
2022/04/19 11:00:43;;;;;;;;;9.67;8.33;17.40;28.40;;;;;;5107591;28;8774;-64
2022/04/19 11:03:15;;;;;;;;;11.00;10.33;16.80;25.90;;;;;;5106755;28;8775;-64
2022/04/19 11:06:02;;;;;;;;;10.33;10.33;16.80;26.40;;;;;;5101582;28;8825;-64
2022/04/19 11:08:30;;;;;;;;;11.67;11.67;16.40;28.30;;;;;;5110213;28;8793;-64
2022/04/19 11:10:56;;;;;;;;;13.00;11.00;17.00;25.90;;;;;;5117939;28;8908;-64
2022/04/19 11:13:23;;;;;;;;;8.33;8.33;16.30;25.90;;;;;;5118199;28;8888;-65
2022/04/19 11:16:01;;;;;;;;;10.00;9.00;16.50;26.80;;;;;;5118144;28;8772;-65
2022/04/19 11:18:33;;;;;;;;;10.00;10.00;17.50;27.00;;;;;;5117972;28;8892;-64
2022/04/19 11:21:12;;;;;;;;;11.00;9.67;17.80;26.70;;;;;;5111471;28;8762;-64
2022/04/19 11:23:46;;;;;;;;;9.00;8.33;18.70;26.80;;;;;;5096849;28;8814;-65
2022/04/19 11:26:30;;;;;;;;;9.33;9.33;19.20;26.50;;;;;;5097151;28;8808;-66
2022/04/19 11:29:11;;;;;;;;;10.00;10.00;19.50;25.40;;;;;;5110825;28;8797;-65
2022/04/19 11:31:56;;;;;;;;;13.33;12.00;19.50;24.80;;;;;;5114816;27;9431;-64
2022/04/19 11:34:22;;;;;;;;;10.00;10.00;19.40;26.20;;;;;;5112927;28;8756;-63
2022/04/19 11:36:49;;;;;;;;;10.00;10.00;19.00;23.20;;;;;;5117197;28;8780;-64
2022/04/19 11:47:57;;;;;;;;;10.67;10.67;19.50;22.90;;;;;;5105715;27;8757;-66
2022/04/19 11:50:30;;;;;;;;;13.67;13.67;19.70;23.80;;;;;;5112070;27;8762;-63
2022/04/19 11:53:00;;;;;;;;;12.67;12.33;19.60;23.90;;;;;;5107050;28;9473;-65
2022/04/19 11:55:27;;;;;;;;;14.33;14.33;18.80;23.70;;;;;;5115732;28;8766;-64
2022/04/19 11:58:07;;;;;;;;;14.33;12.67;18.30;24.70;;;;;;5114486;28;8858;-68
2022/04/19 12:00:33;;;;;;;;;13.33;12.33;17.70;24.60;;;;;;5111827;27;8799;-67
2022/04/19 12:03:23;;;;;;;;;15.00;14.00;18.10;25.10;;;;;;5117042;27;8735;-64
2022/04/19 12:05:49;;;;;;;;;17.33;17.33;18.10;24.80;;;;;;5127879;27;8896;-64
2022/04/19 12:08:33;;;;;;;;;15.00;14.00;17.80;24.40;;;;;;5114055;27;8744;-60
2022/04/19 12:11:02;;;;;;;;;16.33;16.00;17.80;25.90;;;;;;5130262;27;8772;-61
2022/04/19 12:13:28;;;;;;;;;17.33;16.00;18.10;25.30;;;;;;5116472;27;8804;-62
2022/04/19 12:15:54;;;;;;;;;17.67;17.00;18.00;24.90;;;;;;5111525;27;9422;-62
2022/04/19 12:18:52;;;;;;;;;11.67;11.67;18.10;25.10;;;;;;5112740;28;8838;-64
2022/04/19 12:21:50;;;;;;;;;14.00;14.00;18.30;25.60;;;;;;5031178;28;8800;-62
2022/04/19 12:24:43;;;;;;;;;13.33;13.33;18.50;25.40;;;;;;5029881;28;8799;-61
2022/04/19 12:27:09;;;;;;;;;14.33;13.67;18.60;23.90;;;;;;5029739;28;8803;-61
2022/04/19 12:29:36;;;;;;;;;12.00;11.33;19.40;23.60;;;;;;5030706;28;8858;-60
2022/04/19 12:32:05;;;;;;;;;13.00;12.00;19.10;23.50;;;;;;5031506;28;8888;-60
2022/04/19 12:34:36;;;;;;;;;18.33;14.67;18.50;24.00;;;;;;5031946;28;9408;-61
2022/04/19 12:37:18;;;;;;;;;12.67;12.67;18.10;24.40;;;;;;5032114;28;8889;-61
2022/04/19 12:39:58;;;;;;;;;13.00;13.00;18.10;24.10;;;;;;5031247;28;8756;-61
2022/04/19 12:42:24;;;;;;;;;9.67;9.67;18.80;23.70;;;;;;5030393;28;8748;-61
2022/04/19 12:45:07;;;;;;;;;12.33;12.33;19.60;23.30;;;;;;5030994;28;8799;-61
2022/04/19 12:47:33;;;;;;;;;13.00;12.00;19.50;23.20;;;;;;5031966;28;11477;-61
2022/04/19 12:50:12;;;;;;;;;12.75;12.75;20.90;22.20;;;;;;5030867;28;11403;-61
2022/04/19 12:52:40;;;;;;;;;13.33;13.00;20.80;22.10;;;;;;5030538;28;12116;-62
2022/04/19 12:55:09;;;;;;;;;11.67;11.67;20.90;21.20;;;;;;5031212;28;11418;-62
2022/04/19 12:57:37;;;;;;;;;11.00;11.00;24.00;20.30;;;;;;5066585;28;11425;-63
2022/04/19 13:00:09;;;;;;;;;11.00;11.00;24.60;18.60;;;;;;5110655;28;12038;-62
2022/04/19 13:02:40;;;;;;;;;18.67;18.67;23.10;19.60;;;;;;5134916;27;11422;-64
2022/04/19 13:05:06;;;;;;;;;18.00;17.00;22.30;20.50;;;;;;5120390;27;11480;-62
2022/04/19 13:13:04;;;;;;;;;15.00;15.00;25.50;18.30;;;;;;5115373;28;11430;-63
2022/04/19 13:15:34;;;;;;;;;12.67;11.00;23.80;19.00;;;;;;5113244;28;11403;-62
2022/04/19 13:18:00;;;;;;;;;12.67;12.67;22.70;19.60;;;;;;5108171;28;11427;-62
2022/04/19 13:20:26;;;;;;;;;10.67;10.00;21.30;21.10;;;;;;5100526;28;11426;-60
2022/04/19 13:22:52;;;;;;;;;12.00;10.67;21.30;21.30;;;;;;5102401;28;8863;-62
2022/04/19 13:25:20;;;;;;;;;10.33;10.33;21.40;20.80;;;;;;5097296;28;11544;-59
2022/04/19 13:27:47;;;;;;;;;10.00;10.00;21.40;21.10;;;;;;5104009;28;11528;-60
2022/04/19 13:30:13;;;;;;;;;12.33;12.33;21.70;21.10;;;;;;5104364;27;8760;-59
2022/04/19 13:32:40;;;;;;;;;12.67;12.67;20.50;21.60;;;;;;5113403;27;8967;-60
2022/04/19 13:35:07;;;;;;;;;13.67;13.67;19.20;22.10;;;;;;5096762;28;8792;-60
2022/04/19 13:40:22;;;;;;;;;15.33;13.67;19.20;22.90;;;;;;5084896;28;8792;-60